createdAt,value
2018-11-06T00:00:13.048Z,3.33
2018-11-06T00:01:12.969Z,2.67
2018-11-06T00:02:12.892Z,2.76
2018-11-06T00:03:12.816Z,2.47
2018-11-06T00:04:12.749Z,2.47
2018-11-06T00:05:12.656Z,2.57
2018-11-06T00:06:12.592Z,2.28
2018-11-06T00:07:12.507Z,2.28
2018-11-06T00:08:12.430Z,2.67
2018-11-06T00:09:12.392Z,2.95
2018-11-06T00:10:12.275Z,3.33
2018-11-06T00:11:12.198Z,3.05
2018-11-06T00:12:12.127Z,2.76
2018-11-06T00:13:12.043Z,3.42
2018-11-06T00:14:11.967Z,4.28
2018-11-06T00:15:11.892Z,4.00
2018-11-06T00:16:11.811Z,4.57
2018-11-06T00:17:11.734Z,5.14
2018-11-06T00:18:11.657Z,6.29
2018-11-06T00:19:11.580Z,6.00
2018-11-06T00:20:11.503Z,5.71
2018-11-06T00:21:11.423Z,6.10
2018-11-06T00:22:11.348Z,5.52
2018-11-06T00:23:11.270Z,4.95
2018-11-06T00:24:11.193Z,5.05
2018-11-06T00:25:11.116Z,4.57
2018-11-06T00:26:11.046Z,4.57
2018-11-06T00:27:10.965Z,4.95
2018-11-06T00:28:10.888Z,4.38
2018-11-06T00:29:10.808Z,3.90
2018-11-06T00:30:10.729Z,4.10
2018-11-06T00:31:10.653Z,3.81
2018-11-06T00:32:10.576Z,3.33
2018-11-06T00:33:10.498Z,3.62
2018-11-06T00:34:10.455Z,3.33
2018-11-06T00:35:10.349Z,3.33
2018-11-06T00:36:10.284Z,3.33
2018-11-06T00:37:10.193Z,3.33
2018-11-06T00:38:10.111Z,3.42
2018-11-06T00:39:10.039Z,3.33
2018-11-06T00:40:09.958Z,3.42
2018-11-06T00:41:09.880Z,2.28
2018-11-06T00:42:09.800Z,2.28
2018-11-06T00:43:09.730Z,2.38
2018-11-06T00:44:09.648Z,1.90
2018-11-06T00:45:09.572Z,1.71
2018-11-06T00:46:09.495Z,1.04
2018-11-06T00:47:09.416Z,1.04
2018-11-06T00:48:09.343Z,1.14
2018-11-06T00:49:09.261Z,0.85
2018-11-06T00:50:09.185Z,0.85
2018-11-06T00:51:09.127Z,0.09
2018-11-06T00:52:09.029Z,0.09
2018-11-06T00:53:08.951Z,0.00
2018-11-06T00:54:08.874Z,0.00
2018-11-06T00:55:08.804Z,0.00
2018-11-06T00:56:08.720Z,0.00
2018-11-06T00:57:08.642Z,0.00
2018-11-06T00:58:08.564Z,0.00
2018-11-06T00:59:09.187Z,0.00
2018-11-06T01:00:08.483Z,0.00
2018-11-06T01:01:08.331Z,0.00
2018-11-06T01:02:08.258Z,0.00
2018-11-06T01:03:08.180Z,0.00
2018-11-06T01:04:08.101Z,0.00
2018-11-06T01:05:08.025Z,0.00
2018-11-06T01:06:07.945Z,0.00
2018-11-06T01:07:07.879Z,0.00
2018-11-06T01:08:07.792Z,0.00
2018-11-06T01:09:07.712Z,0.00
2018-11-06T01:10:07.633Z,0.00
2018-11-06T01:11:07.556Z,0.00
2018-11-06T01:12:07.480Z,0.00
2018-11-06T01:13:07.401Z,0.00
2018-11-06T01:14:07.324Z,0.00
2018-11-06T01:15:07.247Z,0.00
2018-11-06T01:16:07.173Z,0.00
2018-11-06T01:17:07.098Z,0.00
2018-11-06T01:18:07.015Z,0.00
2018-11-06T01:19:06.936Z,0.00
2018-11-06T01:20:06.872Z,0.00
2018-11-06T01:21:06.780Z,0.00
2018-11-06T01:22:06.702Z,0.00
2018-11-06T01:23:06.636Z,0.00
2018-11-06T01:24:06.549Z,0.00
2018-11-06T01:25:06.473Z,0.00
2018-11-06T01:26:06.408Z,0.00
2018-11-06T01:27:06.321Z,0.00
2018-11-06T01:28:06.237Z,0.00
2018-11-06T01:29:06.165Z,0.00
2018-11-06T01:30:06.087Z,0.00
2018-11-06T01:31:06.008Z,0.00
2018-11-06T01:32:05.928Z,0.00
2018-11-06T01:33:05.853Z,0.00
2018-11-06T01:34:05.772Z,0.00
2018-11-06T01:35:05.696Z,0.00
2018-11-06T01:36:05.618Z,0.00
2018-11-06T01:37:05.538Z,0.00
2018-11-06T01:38:05.463Z,0.00
2018-11-06T01:39:05.388Z,0.00
2018-11-06T01:40:05.307Z,0.00
2018-11-06T01:41:05.230Z,0.00
2018-11-06T01:42:05.152Z,0.00
2018-11-06T01:43:05.073Z,0.00
2018-11-06T01:44:04.995Z,0.00
2018-11-06T01:45:04.918Z,0.00
2018-11-06T01:46:04.839Z,0.00
2018-11-06T01:47:04.764Z,0.00
2018-11-06T01:48:04.685Z,0.00
2018-11-06T01:49:04.606Z,0.00
2018-11-06T01:50:04.534Z,0.00
2018-11-06T01:51:04.455Z,0.00
2018-11-06T01:52:04.379Z,0.00
2018-11-06T01:53:04.297Z,0.00
2018-11-06T01:54:04.218Z,0.00
2018-11-06T01:55:04.141Z,0.00
2018-11-06T01:56:04.070Z,0.00
2018-11-06T01:57:03.986Z,0.00
2018-11-06T01:58:03.908Z,0.00
2018-11-06T01:59:03.831Z,0.00
2018-11-06T02:00:03.752Z,0.00
2018-11-06T02:01:03.677Z,0.00
2018-11-06T02:02:03.603Z,0.00
2018-11-06T02:03:03.518Z,0.00
2018-11-06T02:04:03.446Z,0.00
2018-11-06T02:05:03.364Z,0.00
2018-11-06T02:06:03.287Z,0.00
2018-11-06T02:07:03.207Z,0.00
2018-11-06T02:08:03.130Z,0.00
2018-11-06T02:09:03.052Z,0.00
2018-11-06T02:10:02.973Z,0.00
2018-11-06T02:11:02.896Z,0.00
2018-11-06T02:12:02.819Z,0.00
2018-11-06T02:13:02.739Z,0.00
2018-11-06T02:14:02.664Z,0.00
2018-11-06T02:15:02.589Z,0.00
2018-11-06T02:16:02.506Z,0.00
2018-11-06T02:17:02.430Z,0.00
2018-11-06T02:18:02.352Z,0.00
2018-11-06T02:19:02.288Z,0.00
2018-11-06T02:20:02.195Z,0.00
2018-11-06T02:21:02.125Z,0.00
2018-11-06T02:22:02.041Z,0.00
2018-11-06T02:23:01.962Z,0.00
2018-11-06T02:24:01.889Z,0.00
2018-11-06T02:25:01.809Z,0.00
2018-11-06T02:26:01.728Z,0.00
2018-11-06T02:27:01.653Z,0.00
2018-11-06T02:28:01.568Z,0.00
2018-11-06T02:29:01.493Z,0.00
2018-11-06T02:30:01.417Z,0.00
2018-11-06T02:31:01.341Z,0.00
2018-11-06T02:32:01.263Z,0.00
2018-11-06T02:33:01.185Z,0.00
2018-11-06T02:34:01.110Z,0.00
2018-11-06T02:35:01.029Z,0.00
2018-11-06T02:36:00.949Z,0.00
2018-11-06T02:37:00.871Z,0.00
2018-11-06T02:38:00.796Z,0.00
2018-11-06T02:39:00.716Z,0.00
2018-11-06T02:40:00.638Z,0.00
2018-11-06T02:41:00.561Z,0.00
2018-11-06T02:42:00.483Z,0.00
2018-11-06T02:43:00.405Z,0.00
2018-11-06T02:44:00.326Z,0.00
2018-11-06T02:45:00.247Z,0.00
2018-11-06T02:46:00.171Z,0.00
2018-11-06T02:47:00.100Z,0.00
2018-11-06T02:48:00.017Z,0.00
2018-11-06T02:48:59.937Z,0.00
2018-11-06T02:49:59.860Z,0.00
2018-11-06T02:50:59.780Z,0.00
2018-11-06T02:51:59.703Z,0.00
2018-11-06T02:52:59.627Z,0.00
2018-11-06T02:53:59.547Z,0.00
2018-11-06T02:54:59.471Z,0.00
2018-11-06T02:55:59.500Z,0.00
2018-11-06T02:56:59.317Z,0.00
2018-11-06T02:57:59.239Z,0.00
2018-11-06T02:58:59.156Z,0.00
2018-11-06T02:59:59.079Z,0.00
2018-11-06T03:00:59.005Z,0.00
2018-11-06T03:01:58.923Z,0.00
2018-11-06T03:02:58.844Z,0.00
2018-11-06T03:03:58.769Z,0.00
2018-11-06T03:04:58.696Z,0.00
2018-11-06T03:05:58.610Z,0.00
2018-11-06T03:06:58.539Z,0.00
2018-11-06T03:07:58.456Z,0.00
2018-11-06T03:08:58.376Z,0.00
2018-11-06T03:09:58.298Z,0.00
2018-11-06T03:10:58.222Z,0.00
2018-11-06T03:11:58.148Z,0.00
2018-11-06T03:12:58.069Z,0.00
2018-11-06T03:13:57.988Z,0.00
2018-11-06T03:14:57.908Z,0.00
2018-11-06T03:15:57.830Z,0.00
2018-11-06T03:16:57.816Z,0.00
2018-11-06T03:17:57.673Z,0.00
2018-11-06T03:18:57.604Z,0.00
2018-11-06T03:19:57.519Z,0.00
2018-11-06T03:20:57.440Z,0.00
2018-11-06T03:21:57.361Z,0.00
2018-11-06T03:22:57.284Z,0.00
2018-11-06T03:23:57.207Z,0.00
2018-11-06T03:24:57.127Z,0.00
2018-11-06T03:25:57.050Z,0.00
2018-11-06T03:26:57.056Z,0.00
2018-11-06T03:27:56.894Z,0.00
2018-11-06T03:28:56.824Z,0.00
2018-11-06T03:29:56.745Z,0.00
2018-11-06T03:30:56.665Z,0.00
2018-11-06T03:31:56.585Z,0.00
2018-11-06T03:32:56.504Z,0.00
2018-11-06T03:33:56.429Z,0.00
2018-11-06T03:34:56.356Z,0.00
2018-11-06T03:35:56.274Z,0.00
2018-11-06T03:36:56.193Z,0.00
2018-11-06T03:37:56.114Z,0.00
2018-11-06T03:38:56.035Z,0.00
2018-11-06T03:39:55.959Z,0.00
2018-11-06T03:40:55.884Z,0.00
2018-11-06T03:41:55.802Z,0.00
2018-11-06T03:42:55.721Z,0.00
2018-11-06T03:43:55.647Z,0.00
2018-11-06T03:44:55.566Z,0.00
2018-11-06T03:45:55.495Z,0.00
2018-11-06T03:46:55.416Z,0.00
2018-11-06T03:47:55.337Z,0.00
2018-11-06T03:48:55.268Z,0.00
2018-11-06T03:49:55.182Z,0.00
2018-11-06T03:50:55.101Z,0.00
2018-11-06T03:51:55.022Z,0.00
2018-11-06T03:52:54.946Z,0.00
2018-11-06T03:53:54.866Z,0.00
2018-11-06T03:54:54.793Z,0.00
2018-11-06T03:55:54.715Z,0.00
2018-11-06T03:56:54.640Z,0.00
2018-11-06T03:57:54.560Z,0.00
2018-11-06T03:58:54.475Z,0.00
2018-11-06T03:59:54.405Z,0.00
2018-11-06T04:00:54.322Z,0.00
2018-11-06T04:01:54.243Z,0.00
2018-11-06T04:02:54.164Z,0.00
2018-11-06T04:03:54.088Z,0.00
2018-11-06T04:04:54.007Z,0.00
2018-11-06T04:05:53.933Z,0.00
2018-11-06T04:06:53.852Z,0.00
2018-11-06T04:07:53.774Z,0.00
2018-11-06T04:08:53.700Z,0.00
2018-11-06T04:09:53.623Z,0.00
2018-11-06T04:10:53.544Z,0.00
2018-11-06T04:11:53.464Z,0.00
2018-11-06T04:12:53.388Z,0.00
2018-11-06T04:13:53.307Z,0.00
2018-11-06T04:14:53.231Z,0.00
2018-11-06T04:15:53.151Z,0.00
2018-11-06T04:16:53.073Z,0.00
2018-11-06T04:17:52.999Z,0.00
2018-11-06T04:18:52.919Z,0.00
2018-11-06T04:19:52.843Z,0.00
2018-11-06T04:20:52.762Z,0.00
2018-11-06T04:21:52.688Z,0.00
2018-11-06T04:22:52.612Z,0.00
2018-11-06T04:23:52.530Z,0.00
2018-11-06T04:24:52.452Z,0.00
2018-11-06T04:25:52.374Z,0.00
2018-11-06T04:26:52.304Z,0.00
2018-11-06T04:27:52.221Z,0.00
2018-11-06T04:28:52.144Z,0.00
2018-11-06T04:29:52.066Z,0.00
2018-11-06T04:30:51.990Z,0.00
2018-11-06T04:31:51.910Z,0.00
2018-11-06T04:32:51.839Z,0.00
2018-11-06T04:33:51.753Z,0.00
2018-11-06T04:34:51.676Z,0.00
2018-11-06T04:35:51.600Z,0.00
2018-11-06T04:36:51.530Z,0.00
2018-11-06T04:37:51.440Z,0.00
2018-11-06T04:38:51.363Z,0.19
2018-11-06T04:39:51.288Z,0.00
2018-11-06T04:40:51.216Z,0.00
2018-11-06T04:41:51.130Z,0.19
2018-11-06T04:42:51.061Z,0.00
2018-11-06T04:43:50.979Z,0.00
2018-11-06T04:44:50.899Z,0.00
2018-11-06T04:45:50.823Z,0.00
2018-11-06T04:46:50.744Z,0.00
2018-11-06T04:47:50.672Z,0.00
2018-11-06T04:48:50.590Z,0.00
2018-11-06T04:49:50.512Z,0.00
2018-11-06T04:50:50.432Z,0.00
2018-11-06T04:51:50.358Z,0.00
2018-11-06T04:52:50.278Z,0.00
2018-11-06T04:53:50.201Z,0.28
2018-11-06T04:54:50.123Z,0.09
2018-11-06T04:55:50.047Z,0.76
2018-11-06T04:56:49.969Z,1.04
2018-11-06T04:57:49.891Z,1.33
2018-11-06T04:58:49.814Z,1.33
2018-11-06T04:59:49.736Z,1.52
2018-11-06T05:00:49.658Z,2.38
2018-11-06T05:01:49.588Z,2.47
2018-11-06T05:02:49.504Z,2.28
2018-11-06T05:03:49.426Z,2.19
2018-11-06T05:04:49.347Z,2.19
2018-11-06T05:05:49.268Z,2.76
2018-11-06T05:06:49.243Z,3.23
2018-11-06T05:07:49.115Z,3.05
2018-11-06T05:08:49.037Z,3.14
2018-11-06T05:09:48.958Z,2.95
2018-11-06T05:10:48.882Z,2.76
2018-11-06T05:11:48.807Z,3.05
2018-11-06T05:12:48.728Z,3.52
2018-11-06T05:13:48.695Z,4.19
2018-11-06T05:14:48.567Z,3.81
2018-11-06T05:15:48.496Z,4.09
2018-11-06T05:16:48.415Z,3.71
2018-11-06T05:17:48.338Z,3.71
2018-11-06T05:18:48.263Z,3.81
2018-11-06T05:19:48.186Z,3.90
2018-11-06T05:20:48.109Z,4.38
2018-11-06T05:21:48.028Z,4.28
2018-11-06T05:22:47.993Z,4.47
2018-11-06T05:23:47.926Z,4.09
2018-11-06T05:24:47.799Z,4.00
2018-11-06T05:25:47.717Z,3.81
2018-11-06T05:26:47.640Z,4.19
2018-11-06T05:27:47.566Z,4.47
2018-11-06T05:28:47.487Z,4.47
2018-11-06T05:29:47.411Z,5.24
2018-11-06T05:30:47.331Z,5.43
2018-11-06T05:31:47.254Z,5.71
2018-11-06T05:32:47.252Z,5.62
2018-11-06T05:33:47.101Z,6.38
2018-11-06T05:34:47.112Z,6.19
2018-11-06T05:35:46.945Z,6.09
2018-11-06T05:36:46.894Z,6.67
2018-11-06T05:37:46.788Z,6.28
2018-11-06T05:38:46.768Z,6.47
2018-11-06T05:39:46.639Z,7.23
2018-11-06T05:40:46.555Z,7.43
2018-11-06T05:41:46.479Z,7.90
2018-11-06T05:42:46.401Z,7.62
2018-11-06T05:43:46.332Z,7.81
2018-11-06T05:44:46.246Z,8.85
2018-11-06T05:45:46.290Z,8.18
2018-11-06T05:46:46.091Z,9.23
2018-11-06T05:47:46.016Z,9.91
2018-11-06T05:48:45.934Z,9.72
2018-11-06T05:49:45.861Z,10.00
2018-11-06T05:50:45.785Z,10.19
2018-11-06T05:51:45.708Z,10.00
2018-11-06T05:52:45.630Z,10.00
2018-11-06T05:53:45.553Z,9.61
2018-11-06T05:54:45.472Z,9.61
2018-11-06T05:55:45.395Z,10.00
2018-11-06T05:56:45.316Z,10.19
2018-11-06T05:57:45.239Z,10.00
2018-11-06T05:58:45.164Z,10.00
2018-11-06T05:59:45.085Z,10.66
2018-11-06T06:00:45.010Z,10.85
2018-11-06T06:01:44.932Z,11.43
2018-11-06T06:02:44.851Z,11.04
2018-11-06T06:03:44.778Z,11.24
2018-11-06T06:04:44.697Z,11.43
2018-11-06T06:05:44.620Z,10.75
2018-11-06T06:06:44.542Z,11.23
2018-11-06T06:07:44.465Z,11.04
2018-11-06T06:08:44.386Z,11.43
2018-11-06T06:09:44.316Z,10.75
2018-11-06T06:10:44.234Z,11.33
2018-11-06T06:11:44.155Z,10.66
2018-11-06T06:12:44.080Z,10.38
2018-11-06T06:13:44.000Z,11.61
2018-11-06T06:14:43.923Z,11.04
2018-11-06T06:15:43.845Z,11.33
2018-11-06T06:16:43.792Z,11.80
2018-11-06T06:17:43.693Z,12.38
2018-11-06T06:18:43.621Z,12.95
2018-11-06T06:19:43.536Z,14.09
2018-11-06T06:20:43.457Z,13.90
2018-11-06T06:21:43.381Z,14.48
2018-11-06T06:22:43.427Z,15.24
2018-11-06T06:23:43.226Z,15.43
2018-11-06T06:24:43.148Z,15.24
2018-11-06T06:25:43.070Z,15.34
2018-11-06T06:26:42.993Z,15.05
2018-11-06T06:27:42.915Z,14.58
2018-11-06T06:28:42.839Z,14.48
2018-11-06T06:29:42.764Z,13.81
2018-11-06T06:30:42.698Z,14.10
2018-11-06T06:31:42.615Z,14.29
2018-11-06T06:32:42.532Z,14.67
2018-11-06T06:33:42.452Z,14.86
2018-11-06T06:34:42.453Z,14.95
2018-11-06T06:35:42.297Z,14.86
2018-11-06T06:36:42.216Z,14.95
2018-11-06T06:37:42.142Z,14.58
2018-11-06T06:38:42.127Z,14.86
2018-11-06T06:39:41.987Z,14.95
2018-11-06T06:40:41.945Z,15.24
2018-11-06T06:41:41.832Z,15.33
2018-11-06T06:42:41.757Z,15.14
2018-11-06T06:43:41.685Z,14.95
2018-11-06T06:44:41.598Z,14.95
2018-11-06T06:45:41.522Z,15.90
2018-11-06T06:46:41.448Z,15.90
2018-11-06T06:47:41.368Z,16.58
2018-11-06T06:48:41.290Z,16.38
2018-11-06T06:49:41.214Z,16.19
2018-11-06T06:50:41.135Z,16.19
2018-11-06T06:51:41.064Z,16.29
2018-11-06T06:52:40.980Z,16.38
2018-11-06T06:53:40.902Z,16.19
2018-11-06T06:54:40.907Z,15.90
2018-11-06T06:55:40.747Z,16.09
2018-11-06T06:56:40.667Z,15.91
2018-11-06T06:57:40.591Z,16.19
2018-11-06T06:58:40.514Z,15.71
2018-11-06T06:59:40.436Z,16.28
2018-11-06T07:00:40.360Z,15.80
2018-11-06T07:01:40.281Z,15.90
2018-11-06T07:02:40.249Z,16.09
2018-11-06T07:03:40.129Z,16.66
2018-11-06T07:04:40.052Z,16.85
2018-11-06T07:05:39.972Z,16.85
2018-11-06T07:06:39.893Z,16.95
2018-11-06T07:07:39.816Z,16.85
2018-11-06T07:08:39.739Z,17.90
2018-11-06T07:09:39.663Z,17.80
2018-11-06T07:10:39.583Z,17.80
2018-11-06T07:11:39.506Z,17.99
2018-11-06T07:12:39.461Z,18.57
2018-11-06T07:13:39.354Z,18.57
2018-11-06T07:14:39.275Z,18.95
2018-11-06T07:15:39.197Z,19.23
2018-11-06T07:16:39.121Z,19.43
2018-11-06T07:17:39.041Z,19.62
2018-11-06T07:18:39.036Z,19.42
2018-11-06T07:19:38.889Z,19.13
2018-11-06T07:20:38.810Z,19.13
2018-11-06T07:21:38.732Z,20.00
2018-11-06T07:22:38.655Z,20.00
2018-11-06T07:23:38.576Z,20.76
2018-11-06T07:24:38.501Z,20.39
2018-11-06T07:25:38.420Z,20.48
2018-11-06T07:26:38.345Z,21.81
2018-11-06T07:27:38.272Z,21.24
2018-11-06T07:28:38.211Z,22.10
2018-11-06T07:29:38.113Z,21.72
2018-11-06T07:30:38.035Z,21.72
2018-11-06T07:31:37.970Z,22.10
2018-11-06T07:32:37.882Z,23.24
2018-11-06T07:33:37.802Z,23.34
2018-11-06T07:34:37.750Z,24.19
2018-11-06T07:35:37.823Z,24.48
2018-11-06T07:36:37.573Z,25.43
2018-11-06T07:37:37.494Z,26.20
2018-11-06T07:38:37.419Z,26.86
2018-11-06T07:39:37.340Z,27.44
2018-11-06T07:40:37.285Z,28.77
2018-11-06T07:41:37.191Z,30.68
2018-11-06T07:42:37.109Z,31.53
2018-11-06T07:43:37.030Z,32.20
2018-11-06T07:44:36.954Z,33.06
2018-11-06T07:45:36.876Z,34.20
2018-11-06T07:46:36.800Z,33.72
2018-11-06T07:47:36.722Z,36.32
2018-11-06T07:48:36.644Z,36.60
2018-11-06T07:49:36.567Z,36.12
2018-11-06T07:50:36.492Z,37.36
2018-11-06T07:51:36.417Z,36.98
2018-11-06T07:52:36.336Z,37.84
2018-11-06T07:53:36.273Z,38.22
2018-11-06T07:54:36.183Z,38.70
2018-11-06T07:55:36.114Z,38.41
2018-11-06T07:56:36.027Z,38.12
2018-11-06T07:57:35.950Z,38.03
2018-11-06T07:58:35.873Z,39.46
2018-11-06T07:59:35.798Z,38.98
2018-11-06T08:00:35.722Z,39.36
2018-11-06T08:01:35.643Z,38.79
2018-11-06T08:02:35.565Z,39.75
2018-11-06T08:03:35.495Z,39.65
2018-11-06T08:04:35.417Z,39.84
2018-11-06T08:05:35.337Z,40.03
2018-11-06T08:06:35.274Z,39.17
2018-11-06T08:07:35.180Z,39.75
2018-11-06T08:08:35.104Z,40.41
2018-11-06T08:09:35.074Z,39.56
2018-11-06T08:10:34.951Z,40.70
2018-11-06T08:11:34.880Z,41.27
2018-11-06T08:12:34.795Z,40.89
2018-11-06T08:13:34.718Z,41.84
2018-11-06T08:14:34.739Z,43.29
2018-11-06T08:15:34.584Z,44.15
2018-11-06T08:16:34.490Z,44.92
2018-11-06T08:17:34.419Z,44.06
2018-11-06T08:18:34.336Z,46.82
2018-11-06T08:19:34.263Z,47.39
2018-11-06T08:20:34.245Z,47.58
2018-11-06T08:21:34.107Z,49.02
2018-11-06T08:22:34.029Z,49.68
2018-11-06T08:23:33.968Z,50.73
2018-11-06T08:24:33.877Z,51.40
2018-11-06T08:25:33.804Z,50.85
2018-11-06T08:26:33.724Z,51.33
2018-11-06T08:27:33.662Z,54.67
2018-11-06T08:28:33.619Z,55.94
2018-11-06T08:29:33.494Z,56.23
2018-11-06T08:30:33.458Z,56.80
2018-11-06T08:31:33.727Z,56.51
2018-11-06T08:32:33.822Z,57.37
2018-11-06T08:33:33.193Z,56.87
2018-11-06T08:34:33.107Z,55.82
2018-11-06T08:35:33.042Z,56.89
2018-11-06T08:36:33.018Z,55.84
2018-11-06T08:37:32.889Z,57.18
2018-11-06T08:38:32.809Z,56.96
2018-11-06T08:39:32.734Z,56.58
2018-11-06T08:40:32.656Z,56.51
2018-11-06T08:41:32.580Z,56.04
2018-11-06T08:42:32.597Z,55.84
2018-11-06T08:43:32.430Z,56.38
2018-11-06T08:44:32.353Z,55.94
2018-11-06T08:45:32.277Z,55.94
2018-11-06T08:46:32.201Z,57.15
2018-11-06T08:47:32.126Z,56.32
2018-11-06T08:48:32.048Z,57.94
2018-11-06T08:49:31.973Z,57.18
2018-11-06T08:50:31.896Z,56.89
2018-11-06T08:51:31.825Z,57.28
2018-11-06T08:52:31.749Z,58.11
2018-11-06T08:53:31.669Z,56.99
2018-11-06T08:54:31.626Z,57.37
2018-11-06T08:55:31.517Z,59.38
2018-11-06T08:56:31.441Z,62.15
2018-11-06T08:57:31.365Z,62.71
2018-11-06T08:58:31.290Z,63.10
2018-11-06T08:59:31.213Z,64.28
2018-11-06T09:00:31.137Z,67.14
2018-11-06T09:01:31.062Z,69.15
2018-11-06T09:02:30.995Z,70.77
2018-11-06T09:03:30.911Z,73.44
2018-11-06T09:04:30.842Z,74.30
2018-11-06T09:05:30.762Z,74.88
2018-11-06T09:06:30.689Z,74.30
2018-11-06T09:07:30.609Z,74.49
2018-11-06T09:08:30.535Z,72.49
2018-11-06T09:09:30.472Z,75.07
2018-11-06T09:10:30.383Z,77.08
2018-11-06T09:11:30.309Z,76.31
2018-11-06T09:12:30.231Z,74.02
2018-11-06T09:13:30.156Z,75.74
2018-11-06T09:14:30.083Z,75.64
2018-11-06T09:15:30.008Z,75.83
2018-11-06T09:16:29.932Z,75.45
2018-11-06T09:17:29.854Z,74.69
2018-11-06T09:18:29.778Z,76.12
2018-11-06T09:19:29.706Z,75.93
2018-11-06T09:20:29.625Z,76.21
2018-11-06T09:21:29.556Z,77.36
2018-11-06T09:22:29.478Z,75.93
2018-11-06T09:23:29.402Z,76.88
2018-11-06T09:24:29.329Z,77.45
2018-11-06T09:25:29.257Z,76.50
2018-11-06T09:26:29.179Z,78.03
2018-11-06T09:27:29.101Z,78.79
2018-11-06T09:28:29.030Z,78.70
2018-11-06T09:29:28.955Z,78.89
2018-11-06T09:30:28.876Z,80.51
2018-11-06T09:31:28.801Z,79.46
2018-11-06T09:32:28.724Z,81.47
2018-11-06T09:33:28.656Z,82.42
2018-11-06T09:34:28.577Z,83.00
2018-11-06T09:35:28.501Z,83.13
2018-11-06T09:36:28.425Z,82.37
2018-11-06T09:37:28.351Z,82.37
2018-11-06T09:38:28.276Z,82.84
2018-11-06T09:39:28.200Z,83.80
2018-11-06T09:41:28.123Z,80.84
2018-11-06T09:42:27.974Z,82.65
2018-11-06T09:43:27.913Z,83.61
2018-11-06T09:44:27.824Z,84.47
2018-11-06T09:45:27.794Z,84.09
2018-11-06T09:46:27.677Z,84.76
2018-11-06T09:47:27.602Z,84.56
2018-11-06T09:48:27.527Z,84.09
2018-11-06T09:49:27.457Z,85.33
2018-11-06T09:50:27.377Z,84.38
2018-11-06T09:51:27.309Z,84.19
2018-11-06T09:52:27.226Z,85.33
2018-11-06T09:53:27.154Z,85.09
2018-11-06T09:54:27.076Z,85.66
2018-11-06T09:55:27.004Z,86.80
2018-11-06T09:56:26.934Z,87.09
2018-11-06T09:57:26.854Z,85.85
2018-11-06T09:58:26.780Z,87.29
2018-11-06T09:59:26.706Z,89.29
2018-11-06T10:00:26.629Z,91.16
2018-11-06T10:01:26.554Z,89.20
2018-11-06T10:02:26.477Z,89.39
2018-11-06T10:03:26.408Z,89.77
2018-11-06T10:04:26.332Z,89.91
2018-11-06T10:05:26.263Z,91.16
2018-11-06T10:06:26.255Z,89.67
2018-11-06T10:07:26.325Z,91.68
2018-11-06T10:08:26.037Z,89.91
2018-11-06T10:09:25.962Z,90.73
2018-11-06T10:10:25.886Z,91.11
2018-11-06T10:11:25.896Z,91.73
2018-11-06T10:12:25.738Z,91.16
2018-11-06T10:13:25.661Z,92.40
2018-11-06T10:14:25.588Z,93.07
2018-11-06T10:15:25.522Z,92.49
2018-11-06T10:16:25.443Z,91.30
2018-11-06T10:17:25.378Z,91.35
2018-11-06T10:18:25.293Z,91.25
2018-11-06T10:19:25.219Z,91.25
2018-11-06T10:20:25.148Z,91.53
2018-11-06T10:21:25.155Z,92.30
2018-11-06T10:22:25.015Z,92.16
2018-11-06T10:23:24.935Z,90.16
2018-11-06T10:24:24.864Z,89.96
2018-11-06T10:25:24.773Z,89.67
2018-11-06T10:26:24.699Z,89.39
2018-11-06T10:27:24.623Z,90.44
2018-11-06T10:28:24.550Z,90.16
2018-11-06T10:29:24.476Z,90.67
2018-11-06T10:30:24.404Z,91.68
2018-11-06T10:31:24.329Z,92.59
2018-11-06T10:32:24.255Z,92.88
2018-11-06T10:33:24.180Z,91.63
2018-11-06T10:34:24.105Z,94.02
2018-11-06T10:35:24.036Z,92.02
2018-11-06T10:36:23.969Z,92.49
2018-11-06T10:37:23.886Z,94.12
2018-11-06T10:38:23.809Z,95.27
2018-11-06T10:39:23.736Z,93.16
2018-11-06T10:40:23.663Z,94.21
2018-11-06T10:41:23.590Z,96.42
2018-11-06T10:42:23.514Z,94.79
2018-11-06T10:43:23.458Z,94.79
2018-11-06T10:44:23.373Z,96.32
2018-11-06T10:45:23.296Z,97.75
2018-11-06T10:46:23.218Z,97.66
2018-11-06T10:47:23.146Z,95.56
2018-11-06T10:48:23.071Z,95.36
2018-11-06T10:49:22.997Z,96.56
2018-11-06T10:50:22.923Z,97.42
2018-11-06T10:51:22.859Z,97.71
2018-11-06T10:52:22.775Z,98.00
2018-11-06T10:53:22.711Z,98.19
2018-11-06T10:54:22.628Z,97.33
2018-11-06T10:55:22.555Z,98.86
2018-11-06T10:56:22.479Z,98.28
2018-11-06T10:57:22.405Z,97.80
2018-11-06T10:58:22.332Z,96.08
2018-11-06T10:59:22.261Z,99.33
2018-11-06T11:00:22.186Z,97.90
2018-11-06T11:01:22.114Z,98.28
2018-11-06T11:02:22.040Z,98.95
2018-11-06T11:03:21.966Z,98.66
2018-11-06T11:04:21.981Z,99.05
2018-11-06T11:05:21.817Z,99.52
2018-11-06T11:06:21.748Z,98.28
2018-11-06T11:07:21.673Z,97.80
2018-11-06T11:08:21.595Z,98.66
2018-11-06T11:09:21.521Z,98.47
2018-11-06T11:10:21.452Z,98.76
2018-11-06T11:11:21.383Z,98.66
2018-11-06T11:12:21.311Z,99.81
2018-11-06T11:13:21.263Z,99.72
2018-11-06T11:14:21.160Z,99.99
2018-11-06T11:15:21.082Z,99.33
2018-11-06T11:16:21.008Z,99.99
2018-11-06T11:17:20.938Z,98.86
2018-11-06T11:18:20.862Z,99.99
2018-11-06T11:19:20.790Z,99.99
2018-11-06T11:20:20.756Z,99.87
2018-11-06T11:21:20.641Z,99.99
2018-11-06T11:22:20.569Z,99.99
2018-11-06T11:23:20.497Z,99.99
2018-11-06T11:24:20.436Z,99.99
2018-11-06T11:25:20.351Z,99.99
2018-11-06T11:26:20.276Z,99.99
2018-11-06T11:27:20.206Z,99.99
2018-11-06T11:28:20.129Z,99.99
2018-11-06T11:29:20.051Z,99.99
2018-11-06T11:30:19.980Z,99.99
2018-11-06T11:31:19.911Z,99.99
2018-11-06T11:32:19.836Z,99.99
2018-11-06T11:33:19.760Z,99.99
2018-11-06T11:34:19.688Z,99.99
2018-11-06T11:35:19.631Z,99.99
2018-11-06T11:36:19.553Z,99.99
2018-11-06T11:37:19.469Z,99.99
2018-11-06T11:38:19.399Z,99.99
2018-11-06T11:39:19.322Z,99.99
2018-11-06T11:40:19.250Z,99.99
2018-11-06T11:41:19.178Z,99.99
2018-11-06T11:42:19.104Z,99.99
2018-11-06T11:43:19.030Z,99.99
2018-11-06T11:44:18.962Z,99.99
2018-11-06T11:45:18.884Z,99.99
2018-11-06T11:46:18.815Z,99.99
2018-11-06T11:47:18.741Z,99.99
2018-11-06T11:48:18.665Z,99.99
2018-11-06T11:49:18.593Z,99.99
2018-11-06T11:50:18.521Z,99.99
2018-11-06T11:51:18.448Z,99.99
2018-11-06T11:52:18.378Z,99.99
2018-11-06T11:53:18.302Z,99.99
2018-11-06T11:54:18.235Z,99.99
2018-11-06T11:55:18.155Z,99.99
2018-11-06T11:56:18.083Z,99.99
2018-11-06T11:57:18.009Z,99.99
2018-11-06T11:58:17.938Z,99.99
2018-11-06T11:59:17.862Z,99.99
2018-11-06T12:00:17.793Z,99.99
2018-11-06T12:01:17.721Z,99.99
2018-11-06T12:02:17.724Z,99.99
2018-11-06T12:03:17.576Z,99.99
2018-11-06T12:04:17.502Z,99.99
2018-11-06T12:05:17.434Z,99.99
2018-11-06T12:06:17.354Z,99.99
2018-11-06T12:07:17.284Z,99.99
2018-11-06T12:08:17.213Z,99.99
2018-11-06T12:09:17.141Z,99.99
2018-11-06T12:10:17.066Z,99.99
2018-11-06T12:11:16.993Z,99.99
2018-11-06T12:12:16.919Z,99.99
2018-11-06T12:13:16.847Z,99.99
2018-11-06T12:14:16.786Z,99.99
2018-11-06T12:15:16.707Z,99.99
2018-11-06T12:16:16.634Z,99.99
2018-11-06T12:17:16.583Z,99.99
2018-11-06T12:18:16.562Z,99.99
2018-11-06T12:19:16.417Z,99.99
2018-11-06T12:20:16.342Z,99.99
2018-11-06T12:21:16.270Z,99.99
2018-11-06T12:22:16.198Z,99.99
2018-11-06T12:23:16.127Z,99.99
2018-11-06T12:24:16.139Z,99.99
2018-11-06T12:25:16.232Z,99.99
2018-11-06T12:26:15.910Z,99.99
2018-11-06T12:27:15.840Z,99.99
2018-11-06T12:28:15.763Z,99.99
2018-11-06T12:29:15.692Z,99.99
2018-11-06T12:30:15.624Z,99.99
2018-11-06T12:31:15.551Z,99.99
2018-11-06T12:32:15.478Z,99.99
2018-11-06T12:33:15.411Z,99.99
2018-11-06T12:34:15.332Z,99.99
2018-11-06T12:35:15.258Z,99.99
2018-11-06T12:36:15.190Z,99.99
2018-11-06T12:37:15.118Z,99.99
2018-11-06T12:38:15.043Z,99.99
2018-11-06T12:39:14.972Z,99.99
2018-11-06T12:40:14.904Z,99.99
2018-11-06T12:41:14.824Z,99.99
2018-11-06T12:42:14.754Z,99.99
2018-11-06T12:43:14.701Z,99.99
2018-11-06T12:44:14.612Z,99.99
2018-11-06T12:45:14.537Z,99.99
2018-11-06T12:46:14.468Z,99.99
2018-11-06T12:47:14.394Z,99.99
2018-11-06T12:48:14.314Z,99.99
2018-11-06T12:49:14.249Z,99.99
2018-11-06T12:50:14.230Z,99.99
2018-11-06T12:51:14.117Z,99.99
2018-11-06T12:52:14.052Z,99.99
2018-11-06T12:53:14.003Z,99.99
2018-11-06T12:54:13.937Z,99.99
2018-11-06T12:55:13.824Z,99.99
2018-11-06T12:56:13.852Z,99.99
2018-11-06T12:57:13.674Z,99.99
2018-11-06T12:58:13.602Z,99.99
2018-11-06T12:59:13.531Z,99.99
2018-11-06T13:00:13.461Z,99.99
2018-11-06T13:01:13.393Z,99.99
2018-11-06T13:02:13.318Z,99.99
2018-11-06T13:03:13.279Z,99.99
2018-11-06T13:04:13.173Z,99.99